Time;durP1;ratioP1;P1;durP2;ratioP2;P2;SDS_P1;SDS_P2;PMS_P1;PMS_P2;Temp;Humidity;BMP_temperature;BMP_pressure;BME280_temperature;BME280_humidity;BME280_pressure;Samples;Min_cycle;Max_cycle;Signal;HPM_P1;HPM_P2
2021/11/17 02:27:46;;;;;;;9.10;4.33;;;;;;;-145.69;100.00;72795.53;5093981;28;20239;-78
2021/11/17 02:30:34;;;;;;;9.13;4.37;;;;;;;-145.69;100.00;72799.53;5094015;28;20534;-78
2021/11/17 02:33:18;;;;;;;11.23;4.73;;;;;;;-145.69;100.00;72799.53;5093882;28;20662;-78
2021/11/17 02:36:00;;;;;;;14.20;5.07;;;;;;;-145.69;100.00;72793.56;5093658;28;20627;-79
2021/11/17 02:38:52;;;;;;;12.47;4.93;;;;;;;-145.69;100.00;72793.56;5094122;28;20202;-78
2021/11/17 02:41:39;;;;;;;13.17;5.50;;;;;;;-145.69;100.00;72799.53;5093643;28;20669;-78
2021/11/17 02:44:22;;;;;;;12.57;5.63;;;;;;;-145.69;100.00;72803.50;5093620;28;20251;-79
2021/11/17 02:47:02;;;;;;;14.20;5.80;;;;;;;-145.69;100.00;72801.50;5093793;28;20202;-79
2021/11/17 02:49:45;;;;;;;14.43;6.10;;;;;;;-145.69;100.00;72795.53;5093930;28;20233;-79
2021/11/17 02:52:35;;;;;;;13.17;5.77;;;;;;;-145.69;100.00;72813.47;5093380;28;20247;-79
2021/11/17 02:55:20;;;;;;;13.93;5.20;;;;;;;-145.69;100.00;72811.47;5093634;28;20226;-79
2021/11/17 02:58:04;;;;;;;15.43;5.57;;;;;;;-145.69;100.00;72813.47;5093344;28;20202;-78
2021/11/17 03:01:00;;;;;;;12.53;5.07;;;;;;;-145.69;100.00;72807.47;5093355;28;20255;-79
2021/11/17 03:03:42;;;;;;;13.77;5.90;;;;;;;-145.69;100.00;72803.50;5093581;28;20206;-78
2021/11/17 03:06:24;;;;;;;14.47;5.90;;;;;;;-145.69;100.00;72805.50;5093794;28;20258;-78
2021/11/17 03:09:13;;;;;;;14.70;5.87;;;;;;;-145.69;100.00;72809.47;5093364;28;20198;-79
2021/11/17 03:12:05;;;;;;;13.83;5.73;;;;;;;-145.69;100.00;72807.47;5092923;28;20202;-79
2021/11/17 03:14:56;;;;;;;16.40;5.77;;;;;;;-145.69;100.00;72795.53;5093433;28;20229;-79
2021/11/17 03:17:46;;;;;;;14.03;5.63;;;;;;;-145.69;100.00;72803.50;5093322;28;20201;-79
2021/11/17 03:20:26;;;;;;;12.50;5.67;;;;;;;-145.69;100.00;72807.47;5093314;28;20210;-79
2021/11/17 03:23:05;;;;;;;14.23;6.17;;;;;;;-145.69;100.00;72805.50;5094464;28;20198;-79
2021/11/17 03:25:50;;;;;;;14.50;6.20;;;;;;;-145.69;100.00;72803.50;5097143;28;20271;-78
2021/11/17 03:28:39;;;;;;;14.13;6.07;;;;;;;-145.69;100.00;72803.50;5097182;28;20204;-79
2021/11/17 03:31:22;;;;;;;14.27;6.00;;;;;;;-145.69;100.00;72807.47;5097412;28;20193;-79
2021/11/17 03:34:12;;;;;;;12.90;6.10;;;;;;;-145.69;100.00;72807.47;5097321;28;20197;-79
2021/11/17 03:37:11;;;;;;;12.80;5.67;;;;;;;-145.69;100.00;72797.53;5097484;28;20239;-79
2021/11/17 03:39:56;;;;;;;16.10;6.20;;;;;;;-145.69;100.00;72797.53;5081415;28;20256;-79
2021/11/17 03:42:39;;;;;;;13.03;5.80;;;;;;;-145.69;100.00;72797.53;5097400;28;20206;-79
2021/11/17 03:45:31;;;;;;;12.47;5.77;;;;;;;-145.69;100.00;72797.53;5097000;28;20586;-79
2021/11/17 03:48:14;;;;;;;13.73;5.67;;;;;;;-145.69;100.00;72791.56;5096879;28;20202;-79
2021/11/17 03:51:06;;;;;;;16.27;5.77;;;;;;;-145.69;100.00;72791.56;5096624;28;20194;-79
2021/11/17 03:53:54;;;;;;;12.87;5.80;;;;;;;-145.69;100.00;72787.56;5096781;28;20247;-79
2021/11/17 03:56:44;;;;;;;15.43;6.17;;;;;;;-145.69;100.00;72793.56;5096996;28;20253;-79
2021/11/17 03:59:29;;;;;;;13.70;5.67;;;;;;;-145.69;100.00;72785.59;5097133;28;20202;-79
2021/11/17 04:02:18;;;;;;;13.27;6.00;;;;;;;-145.69;100.00;72787.56;5097064;28;20279;-79
2021/11/17 04:05:07;;;;;;;18.87;6.80;;;;;;;-145.69;100.00;72799.53;5099185;28;20266;-79
2021/11/17 04:07:47;;;;;;;15.80;5.93;;;;;;;-145.69;100.00;72803.50;5096708;28;20251;-79
2021/11/17 04:10:30;;;;;;;14.70;5.60;;;;;;;-145.69;100.00;72801.50;5096777;28;20209;-78
2021/11/17 04:13:07;;;;;;;17.13;6.30;;;;;;;-145.69;100.00;72801.50;5096491;28;20208;-78
2021/11/17 04:15:52;;;;;;;15.50;6.00;;;;;;;-145.69;100.00;72805.50;5096182;28;20229;-78
2021/11/17 04:18:31;;;;;;;19.27;7.17;;;;;;;-145.69;100.00;72803.50;5096770;28;20202;-79
2021/11/17 04:21:12;;;;;;;22.57;8.67;;;;;;;-145.69;100.00;72811.47;5096485;28;20209;-78
2021/11/17 04:24:04;;;;;;;17.37;7.53;;;;;;;-145.69;100.00;72807.47;5096376;28;20256;-79
2021/11/17 04:26:52;;;;;;;18.33;7.40;;;;;;;-145.69;100.00;72803.50;5096232;28;20224;-79
2021/11/17 04:29:56;;;;;;;22.17;8.33;;;;;;;-145.69;100.00;72797.53;5096068;28;20726;-79
2021/11/17 04:32:35;;;;;;;17.33;7.50;;;;;;;-145.69;100.00;72789.56;5065001;28;20202;-79
2021/11/17 04:35:33;;;;;;;21.07;7.93;;;;;;;-145.69;100.00;72799.53;5096110;28;20229;-79
2021/11/17 04:38:24;;;;;;;21.07;8.07;;;;;;;-145.69;100.00;72805.50;5091003;28;20235;-79
2021/11/17 04:41:09;;;;;;;19.40;7.43;;;;;;;-145.69;100.00;72803.50;5095392;28;20251;-79
2021/11/17 04:43:50;;;;;;;17.67;7.47;;;;;;;-145.69;100.00;72793.56;5096033;28;20252;-79
2021/11/17 04:46:31;;;;;;;19.43;8.23;;;;;;;-145.69;100.00;72785.59;5096082;28;20202;-79
2021/11/17 04:49:15;;;;;;;17.77;8.10;;;;;;;-145.69;100.00;72783.59;5095875;28;20602;-78
2021/11/17 04:51:57;;;;;;;21.43;7.90;;;;;;;-145.69;100.00;72779.63;5096039;28;20206;-79
2021/11/17 04:54:43;;;;;;;19.07;7.70;;;;;;;-145.69;100.00;72785.59;5095666;28;20251;-79
2021/11/17 04:57:24;;;;;;;14.13;6.83;;;;;;;-145.69;100.00;72783.59;5095640;28;20202;-79
2021/11/17 05:00:04;;;;;;;13.60;6.70;;;;;;;-145.69;100.00;72783.59;5095573;28;20202;-79
2021/11/17 05:02:43;;;;;;;16.37;7.60;;;;;;;-145.69;100.00;72781.59;5095598;28;20202;-79
2021/11/17 05:05:32;;;;;;;17.60;7.70;;;;;;;-145.69;100.00;72783.59;5095542;28;20204;-79
2021/11/17 05:08:06;;;;;;;21.53;9.67;;;;;;;-145.69;100.00;72793.56;5095393;28;20202;-79
2021/11/17 05:10:45;;;;;;;19.17;8.07;;;;;;;-145.69;100.00;72807.47;5095295;28;20653;-78
2021/11/17 05:13:22;;;;;;;18.77;8.33;;;;;;;-145.69;100.00;72815.44;5095266;28;20198;-78
2021/11/17 05:16:00;;;;;;;16.83;8.50;;;;;;;-145.69;100.00;72813.47;5095330;28;20249;-79
2021/11/17 05:18:35;;;;;;;20.20;8.87;;;;;;;-145.69;100.00;72811.47;5095058;28;20202;-79
2021/11/17 05:21:14;;;;;;;22.60;9.10;;;;;;;-145.69;100.00;72811.47;5095281;28;20545;-79
2021/11/17 05:23:57;;;;;;;18.53;8.53;;;;;;;-145.69;100.00;72813.47;5094752;28;20612;-79
2021/11/17 05:26:37;;;;;;;23.00;7.90;;;;;;;-145.69;100.00;72807.47;5095086;28;20198;-78
2021/11/17 05:29:25;;;;;;;17.13;7.87;;;;;;;-145.69;100.00;72797.53;5094958;28;20198;-79
2021/11/17 05:32:08;;;;;;;19.50;8.73;;;;;;;-145.69;100.00;72795.53;5095135;28;20599;-78
2021/11/17 05:34:49;;;;;;;22.07;10.07;;;;;;;-145.69;100.00;72803.50;5095035;28;20206;-79
2021/11/17 05:37:25;;;;;;;22.00;8.87;;;;;;;-145.69;100.00;72817.44;5094641;28;20198;-77
2021/11/17 05:40:06;;;;;;;18.03;8.43;;;;;;;-145.69;100.00;72819.44;5095029;28;20265;-79
2021/11/17 05:42:46;;;;;;;21.43;7.83;;;;;;;-145.69;100.00;72823.41;5094801;28;20217;-78
2021/11/17 05:45:40;;;;;;;19.13;8.23;;;;;;;-145.69;100.00;72827.38;5094157;28;20202;-78
2021/11/17 05:48:18;;;;;;;19.90;8.37;;;;;;;-145.69;100.00;72829.38;5094275;28;20221;-78
2021/11/17 05:51:00;;;;;;;21.40;8.87;;;;;;;-145.69;100.00;72823.41;5094672;28;20198;-78
2021/11/17 05:53:44;;;;;;;15.87;7.50;;;;;;;-145.69;100.00;72823.41;5094669;28;20202;-78
2021/11/17 05:56:34;;;;;;;22.17;7.50;;;;;;;-145.69;100.00;72827.38;5094676;28;20218;-78
2021/11/17 05:59:15;;;;;;;18.23;8.33;;;;;;;-145.69;100.00;72815.44;5094463;28;20198;-78
2021/11/17 06:01:54;;;;;;;22.20;8.70;;;;;;;-145.69;100.00;72823.41;5096872;28;20193;-78
2021/11/17 06:04:21;;;;;;;19.13;8.17;;;;;;;-145.69;100.00;72819.44;5094224;28;20247;-78
2021/11/17 06:06:47;;;;;;;17.00;7.43;;;;;;;-145.69;100.00;72831.38;5094494;28;20206;-79
2021/11/17 06:09:13;;;;;;;23.20;8.53;;;;;;;-145.69;100.00;72827.38;5094306;28;20224;-79
2021/11/17 06:11:45;;;;;;;17.60;7.83;;;;;;;-145.69;100.00;72827.38;5094291;28;20202;-79
2021/11/17 06:14:15;;;;;;;17.20;7.23;;;;;;;-145.69;100.00;72827.38;5094365;28;20247;-79
2021/11/17 06:16:44;;;;;;;15.57;6.93;;;;;;;-145.69;100.00;72823.41;5094010;28;20634;-78
2021/11/17 06:19:12;;;;;;;17.77;8.03;;;;;;;-145.69;100.00;72831.38;5094506;28;20202;-78
2021/11/17 06:21:40;;;;;;;17.33;7.57;;;;;;;-145.69;100.00;72839.34;5094038;28;20198;-78
2021/11/17 06:24:09;;;;;;;19.53;9.47;;;;;;;-145.69;100.00;72843.31;5093674;28;20704;-78
2021/11/17 06:26:38;;;;;;;28.27;12.47;;;;;;;-145.69;100.00;72847.28;5093496;28;20898;-78
2021/11/17 06:29:11;;;;;;;24.43;9.87;;;;;;;-145.69;100.00;72857.25;5094096;28;20448;-78
2021/11/17 06:31:41;;;;;;;19.43;9.03;;;;;;;-145.69;100.00;72853.28;5093708;28;20645;-77
2021/11/17 06:34:23;;;;;;;20.43;9.53;;;;;;;-145.69;100.00;72859.25;5093949;28;20205;-78
2021/11/17 06:36:49;;;;;;;21.33;8.37;;;;;;;-145.69;100.00;72859.25;5093663;28;20229;-77
2021/11/17 06:39:16;;;;;;;18.40;7.60;;;;;;;-145.69;100.00;72853.28;5093611;28;20259;-78
2021/11/17 06:41:42;;;;;;;19.67;8.47;;;;;;;-145.69;100.00;72845.31;5093740;28;20251;-77
2021/11/17 06:44:10;;;;;;;21.33;9.23;;;;;;;-145.69;100.00;72851.28;5093739;28;20198;-78
2021/11/17 06:46:36;;;;;;;23.00;9.13;;;;;;;-145.69;100.00;72847.28;5093818;28;20228;-78
2021/11/17 06:49:04;;;;;;;27.23;8.23;;;;;;;-145.69;100.00;72841.31;5093553;28;20202;-78
2021/11/17 06:51:30;;;;;;;24.50;9.23;;;;;;;-145.69;100.00;72849.28;5093500;28;20330;-78
2021/11/17 06:53:57;;;;;;;15.10;7.27;;;;;;;-145.69;100.00;72859.25;5093472;28;20194;-78
2021/11/17 06:56:23;;;;;;;21.43;8.37;;;;;;;-145.69;100.00;72859.25;5093183;28;20229;-79
2021/11/17 06:58:50;;;;;;;20.37;8.77;;;;;;;-145.69;100.00;72867.19;5092873;28;20251;-78
2021/11/17 07:01:17;;;;;;;22.73;8.97;;;;;;;-145.69;100.00;72873.19;5093412;28;20197;-79
2021/11/17 07:03:44;;;;;;;19.10;8.37;;;;;;;-145.69;100.00;72873.19;5093200;28;20645;-78
2021/11/17 07:06:10;;;;;;;22.13;8.20;;;;;;;-145.69;100.00;72859.25;5093409;28;20210;-79
2021/11/17 07:08:37;;;;;;;18.93;8.03;;;;;;;-145.69;100.00;72855.25;5093402;28;20202;-79
2021/11/17 07:11:04;;;;;;;17.17;7.70;;;;;;;-145.69;100.00;72867.19;5093083;28;20237;-79
2021/11/17 07:13:30;;;;;;;16.33;6.77;;;;;;;-145.69;100.00;72871.19;5093351;28;20251;-78
2021/11/17 07:15:57;;;;;;;10.25;5.25;;;;;;;-145.69;100.00;72867.19;5092581;28;20935;-79
2021/11/17 07:18:24;;;;;;;15.17;6.50;;;;;;;-145.69;100.00;72869.19;5093293;28;20198;-79
2021/11/17 07:20:51;;;;;;;14.97;6.70;;;;;;;-145.69;100.00;72871.19;5093234;28;20583;-78
2021/11/17 07:23:18;;;;;;;15.00;6.07;;;;;;;-145.69;100.00;72877.16;5093177;28;20202;-78
2021/11/17 07:25:45;;;;;;;24.73;10.20;;;;;;;-145.69;100.00;72867.19;5092845;28;20271;-79
2021/11/17 07:28:11;;;;;;;21.03;10.17;;;;;;;-145.69;100.00;72859.25;5093230;28;20198;-79
2021/11/17 07:30:40;;;;;;;13.83;6.07;;;;;;;-145.69;100.00;72847.28;5093053;28;20194;-79
2021/11/17 07:33:08;;;;;;;11.83;5.40;;;;;;;-145.69;100.00;72851.28;5092994;28;20198;-79
2021/11/17 07:35:38;;;;;;;12.93;6.30;;;;;;;-145.69;100.00;72849.28;5092649;28;20717;-79
2021/11/17 07:38:06;;;;;;;14.53;6.17;;;;;;;-145.69;100.00;72841.31;5092764;28;20595;-79
2021/11/17 07:40:35;;;;;;;12.40;5.10;;;;;;;-145.69;100.00;72853.28;5093000;28;20209;-78
2021/11/17 07:43:02;;;;;;;16.50;6.07;;;;;;;-145.69;100.00;72869.19;5092902;28;20247;-78
2021/11/17 07:45:28;;;;;;;14.40;6.97;;;;;;;-145.69;100.00;72867.19;5092953;28;20256;-78
2021/11/17 07:47:54;;;;;;;14.83;7.57;;;;;;;-145.69;100.00;72855.25;5092874;28;20236;-79
2021/11/17 07:50:21;;;;;;;20.00;8.63;;;;;;;-145.69;100.00;72851.28;5092878;28;20248;-78
2021/11/17 07:52:49;;;;;;;18.37;7.67;;;;;;;-145.69;100.00;72851.28;5092781;28;20198;-78
2021/11/17 07:55:18;;;;;;;17.03;7.90;;;;;;;-145.69;100.00;72863.22;5093144;28;20252;-78
2021/11/17 07:57:47;;;;;;;14.30;5.67;;;;;;;-145.69;100.00;72873.19;5092774;28;20225;-78
2021/11/17 08:00:17;;;;;;;14.30;6.37;;;;;;;-145.69;100.00;72879.16;5092661;28;20248;-78
2021/11/17 08:02:44;;;;;;;12.43;5.70;;;;;;;-145.69;100.00;72891.09;5092929;28;20279;-78
2021/11/17 08:05:12;;;;;;;14.37;6.40;;;;;;;-145.69;100.00;72891.09;5092631;28;20193;-78
2021/11/17 08:07:40;;;;;;;9.53;4.40;;;;;;;-145.69;100.00;72903.03;5092897;28;20213;-79
2021/11/17 08:10:11;;;;;;;7.93;4.30;;;;;;;-145.69;100.00;72914.97;5098250;28;20202;-79
2021/11/17 08:12:37;;;;;;;6.50;4.20;;;;;;;-145.69;100.00;72914.97;5096346;28;20660;-79
2021/11/17 08:15:05;;;;;;;10.93;4.57;;;;;;;-145.69;100.00;72909.00;5096419;28;20198;-79
2021/11/17 08:17:31;;;;;;;11.43;4.43;;;;;;;-145.69;100.00;72914.97;5096179;28;20226;-79
2021/11/17 08:19:58;;;;;;;10.20;4.50;;;;;;;-145.69;100.00;72918.97;5096481;28;20209;-79
2021/11/17 08:22:24;;;;;;;8.43;4.17;;;;;;;-145.69;100.00;72913.00;5096401;28;20198;-79
2021/11/17 08:24:51;;;;;;;7.93;3.87;;;;;;;-145.69;100.00;72918.97;5095912;28;20233;-79
2021/11/17 08:27:20;;;;;;;10.13;4.63;;;;;;;-145.69;100.00;72914.97;5096142;28;20206;-79
2021/11/17 08:29:47;;;;;;;9.60;4.60;;;;;;;-145.69;100.00;72909.00;5095984;28;20201;-79
2021/11/17 08:32:14;;;;;;;9.63;4.43;;;;;;;-145.69;100.00;72907.00;5095968;28;20198;-79
2021/11/17 08:34:40;;;;;;;9.10;4.50;;;;;;;-145.69;100.00;72905.03;5096033;28;20194;-79
2021/11/17 08:37:07;;;;;;;7.87;3.90;;;;;;;-145.69;100.00;72911.00;5096046;28;20291;-79
2021/11/17 08:39:33;;;;;;;8.57;3.80;;;;;;;-145.69;100.00;72907.00;5095857;28;20251;-79
2021/11/17 08:42:00;;;;;;;7.13;3.87;;;;;;;-145.69;100.00;72903.03;5095836;28;20205;-79
2021/11/17 08:44:28;;;;;;;13.83;5.90;;;;;;;-145.69;100.00;72901.03;5095718;28;20206;-78
2021/11/17 08:46:55;;;;;;;11.77;5.33;;;;;;;-145.69;100.00;72907.00;5095608;28;20206;-78
2021/11/17 08:49:21;;;;;;;11.93;5.63;;;;;;;-145.69;100.00;72887.09;5095637;28;20209;-79
2021/11/17 08:51:48;;;;;;;6.70;3.97;;;;;;;-145.69;100.00;72871.19;5095426;28;20198;-79
2021/11/17 08:54:15;;;;;;;6.23;3.30;;;;;;;-145.69;100.00;72859.25;5095630;28;20247;-77
2021/11/17 08:56:42;;;;;;;6.60;3.77;;;;;;;-145.69;100.00;72833.38;5095562;28;20592;-79
2021/11/17 08:59:08;;;;;;;7.30;4.00;;;;;;;-145.69;100.00;72793.56;5095234;28;20198;-78
2021/11/17 09:01:36;;;;;;;4.97;2.90;;;;;;;-145.69;100.00;72759.72;5095357;28;20206;-77
2021/11/17 09:04:06;;;;;;;6.70;2.87;;;;;;;-145.69;100.00;72763.69;5095559;28;20738;-77
2021/11/17 09:06:32;;;;;;;6.63;2.27;;;;;;;-145.69;100.00;72769.66;5095531;28;20285;-77
2021/11/17 09:09:02;;;;;;;5.20;2.87;;;;;;;-145.69;100.00;72787.56;5095328;28;20259;-77
2021/11/17 09:11:28;;;;;;;3.73;2.50;;;;;;;-145.69;100.00;72811.47;5095243;28;20259;-77
2021/11/17 09:13:55;;;;;;;3.67;2.13;;;;;;;-145.69;100.00;72827.38;5095011;28;20657;-79
2021/11/17 09:16:21;;;;;;;3.53;2.20;;;;;;;-145.69;100.00;72829.38;5095315;28;20222;-78
2021/11/17 09:18:50;;;;;;;4.93;2.30;;;;;;;-145.69;100.00;72849.28;5095251;28;20206;-78
2021/11/17 09:21:18;;;;;;;2.90;1.97;;;;;;;-145.69;100.00;72851.28;5094194;28;20202;-78
2021/11/17 09:23:46;;;;;;;2.37;1.70;;;;;;;-145.69;100.00;72863.22;5094892;28;20595;-78
2021/11/17 09:26:14;;;;;;;2.50;1.67;;;;;;;-145.69;100.00;72861.22;5095007;28;20247;-77
2021/11/17 09:28:41;;;;;;;2.23;1.80;;;;;;;-145.69;100.00;72865.22;5094686;28;20666;-78
2021/11/17 09:31:09;;;;;;;3.55;2.13;;;;;;;-145.69;100.00;72863.22;5094204;28;20859;-77
2021/11/17 09:33:37;;;;;;;5.60;2.50;;;;;;;-145.69;100.00;72853.28;5094812;28;20194;-78
2021/11/17 09:36:05;;;;;;;13.20;5.60;;;;;;;-145.69;100.00;72855.25;5095017;28;20205;-78
2021/11/17 09:38:32;;;;;;;10.03;5.20;;;;;;;-145.69;100.00;72861.22;5101955;28;20198;-78
2021/11/17 09:41:01;;;;;;;3.13;1.90;;;;;;;-145.69;100.00;72879.16;5114485;28;20201;-77
2021/11/17 09:43:30;;;;;;;3.63;1.73;;;;;;;-145.69;100.00;72883.13;5115216;28;20208;-76
2021/11/17 09:45:59;;;;;;;2.00;1.50;;;;;;;-145.69;100.00;72861.22;5114898;28;20208;-77
2021/11/17 09:48:29;;;;;;;2.43;1.40;;;;;;;-145.69;100.00;72863.22;5115040;28;20716;-76
2021/11/17 09:50:59;;;;;;;1.70;1.20;;;;;;;-145.69;100.00;72843.31;5114923;28;20197;-75
2021/11/17 09:53:40;;;;;;;2.30;1.30;;;;;;;-145.69;100.00;72819.44;5114885;28;20205;-77
2021/11/17 09:56:09;;;;;;;2.87;1.60;;;;;;;-145.69;100.00;72817.44;5114980;28;20739;-76
2021/11/17 09:58:39;;;;;;;2.33;1.23;;;;;;;-145.69;100.00;72809.47;5114899;28;20197;-78
2021/11/17 10:01:12;;;;;;;1.67;1.20;;;;;;;-145.69;100.00;72839.34;5114859;28;20202;-76
2021/11/17 10:03:48;;;;;;;4.80;1.37;;;;;;;-145.69;100.00;72831.38;5114503;28;20660;-77
2021/11/17 10:06:55;;;;;;;4.13;1.33;;;;;;;-145.69;100.00;72823.41;5114742;28;20261;-76
2021/11/17 10:09:44;;;;;;;1.47;1.10;;;;;;;-145.69;100.00;72811.47;5114657;28;20296;-75
2021/11/17 10:15:11;;;;;;;2.03;1.20;;;;;;;-145.69;100.00;72797.53;5093893;28;20201;-77
2021/11/17 10:17:43;;;;;;;2.07;1.20;;;;;;;-145.69;100.00;72793.56;5094011;28;20235;-77
2021/11/17 10:20:16;;;;;;;2.73;1.53;;;;;;;-145.69;100.00;72847.28;5093854;28;20198;-77
2021/11/17 10:22:45;;;;;;;3.53;1.20;;;;;;;-145.69;100.00;72879.16;5093866;28;20209;-77
2021/11/17 10:25:16;;;;;;;1.80;1.30;;;;;;;-145.69;100.00;72871.19;5093635;28;20226;-77
2021/11/17 10:27:50;;;;;;;1.20;0.87;;;;;;;-145.69;100.00;72901.03;5094095;28;20206;-77
2021/11/17 10:30:26;;;;;;;2.27;1.40;;;;;;;-145.69;100.00;72899.06;5093909;28;20204;-77
2021/11/17 10:33:03;;;;;;;1.70;1.30;;;;;;;-145.69;100.00;72895.06;5093653;28;20198;-77
2021/11/17 10:35:33;;;;;;;4.93;1.50;;;;;;;-145.69;100.00;72885.13;5093556;28;20212;-77
2021/11/17 10:38:05;;;;;;;2.87;1.30;;;;;;;-145.69;100.00;72867.19;5093835;28;20226;-77
2021/11/17 10:40:42;;;;;;;2.83;1.10;;;;;;;-145.69;100.00;72839.34;5093775;28;20210;-77
2021/11/17 10:43:17;;;;;;;2.10;1.00;;;;;;;-145.69;100.00;72849.28;5093365;28;20267;-77
2021/11/17 10:45:46;;;;;;;2.53;1.27;;;;;;;-145.69;100.00;72833.38;5093348;28;20586;-77
2021/11/17 10:48:18;;;;;;;1.67;1.33;;;;;;;-145.69;100.00;72807.47;5093220;28;20656;-78
2021/11/17 10:50:45;;;;;;;3.97;2.27;;;;;;;-145.69;100.00;72801.50;5093353;28;20587;-77
2021/11/17 10:53:14;;;;;;;2.30;1.47;;;;;;;-145.69;100.00;72791.56;5093406;28;20202;-77
2021/11/17 10:55:46;;;;;;;1.10;1.00;;;;;;;-145.69;100.00;72801.50;5093419;28;20264;-77
2021/11/17 10:58:15;;;;;;;1.93;1.30;;;;;;;-145.69;100.00;72793.56;5093360;28;20230;-77
2021/11/17 11:00:45;;;;;;;1.30;0.93;;;;;;;-145.69;100.00;72771.66;5093477;28;20202;-77
2021/11/17 11:03:16;;;;;;;1.23;0.97;;;;;;;-145.69;100.00;72759.72;5093193;28;20197;-77
2021/11/17 11:05:48;;;;;;;1.40;1.13;;;;;;;-145.69;100.00;72759.72;5093287;28;20248;-77
2021/11/17 11:08:19;;;;;;;1.63;1.10;;;;;;;-145.69;100.00;72771.66;5092649;28;20206;-76
2021/11/17 11:10:57;;;;;;;1.27;0.93;;;;;;;-145.69;100.00;72805.50;5092528;28;20198;-76
2021/11/17 11:13:26;;;;;;;2.00;1.00;;;;;;;-145.69;100.00;72817.44;5092782;28;20205;-80
2021/11/17 11:15:57;;;;;;;2.30;1.50;;;;;;;-145.69;100.00;72807.47;5093385;28;20198;-79
2021/11/17 11:18:47;;;;;;;1.67;1.33;;;;;;;-145.69;100.00;72787.56;5093167;28;20226;-79
2021/11/17 11:21:16;;;;;;;1.30;1.00;;;;;;;-145.69;100.00;72815.44;5093598;28;20546;-79
2021/11/17 11:24:14;;;;;;;1.33;0.93;;;;;;;-145.69;100.00;72823.41;5093518;28;20201;-79
2021/11/17 11:27:25;;;;;;;1.23;0.90;;;;;;;-145.69;100.00;72827.38;5093115;28;20247;-79
2021/11/17 11:30:35;;;;;;;1.80;1.20;;;;;;;-145.69;100.00;72827.38;5093406;28;20288;-79
2021/11/17 11:33:28;;;;;;;0.93;0.83;;;;;;;-145.69;100.00;72829.38;5093658;28;20209;-79
2021/11/17 11:36:34;;;;;;;3.27;1.10;;;;;;;-145.69;100.00;72805.50;5093677;28;20595;-79
2021/11/17 11:39:30;;;;;;;3.13;0.93;;;;;;;-145.69;100.00;72821.41;5093126;28;20197;-79
2021/11/17 11:42:23;;;;;;;1.40;1.00;;;;;;;-145.69;100.00;72809.47;5093134;28;20205;-80
2021/11/17 11:44:55;;;;;;;1.17;1.00;;;;;;;-145.69;100.00;72787.56;5076832;28;20229;-79
2021/11/17 11:47:50;;;;;;;1.30;0.87;;;;;;;-145.69;100.00;72787.56;5097015;28;20230;-79
2021/11/17 11:50:48;;;;;;;1.23;0.90;;;;;;;-145.69;100.00;72791.56;5096909;28;20202;-79
2021/11/17 11:53:19;;;;;;;2.77;1.17;;;;;;;-145.69;100.00;72809.47;5096831;28;20289;-79
2021/11/17 11:56:02;;;;;;;1.93;1.03;;;;;;;-145.69;100.00;72807.47;5096702;28;20783;-79
2021/11/17 11:58:40;;;;;;;1.83;1.23;;;;;;;-145.69;100.00;72817.44;5096456;28;20253;-79
2021/11/17 12:01:13;;;;;;;2.53;0.90;;;;;;;-145.69;100.00;72835.34;5079479;28;20534;-79
2021/11/17 12:03:50;;;;;;;1.60;1.13;;;;;;;-145.69;100.00;72817.44;5096655;28;20202;-78
2021/11/17 12:06:21;;;;;;;1.43;1.10;;;;;;;-145.69;100.00;72835.34;5096668;28;20201;-78
2021/11/17 12:08:53;;;;;;;1.50;0.90;;;;;;;-145.69;100.00;72851.28;5096421;28;20213;-79
2021/11/17 12:11:21;;;;;;;1.90;1.00;;;;;;;-145.69;100.00;72835.34;5096499;28;20205;-79
2021/11/17 12:13:59;;;;;;;1.27;1.17;;;;;;;-145.69;100.00;72833.38;5096596;28;20309;-80
2021/11/17 12:16:45;;;;;;;1.10;0.90;;;;;;;-145.69;100.00;72843.31;5096603;28;20251;-78
2021/11/17 12:19:14;;;;;;;1.80;1.00;;;;;;;-145.69;100.00;72853.28;5096251;28;20293;-79
2021/11/17 12:21:55;;;;;;;2.07;0.90;;;;;;;-145.69;100.00;72861.22;5098283;28;20206;-78
2021/11/17 12:24:27;;;;;;;2.60;1.23;;;;;;;-145.69;100.00;72875.16;5096084;28;20321;-78
2021/11/17 12:27:04;;;;;;;1.23;1.10;;;;;;;-145.69;100.00;72877.16;5096402;28;20220;-79
2021/11/17 12:29:40;;;;;;;1.30;1.20;;;;;;;-145.69;100.00;72863.22;5096211;28;20255;-78
2021/11/17 12:32:11;;;;;;;1.17;0.90;;;;;;;-145.69;100.00;72881.13;5096400;28;20205;-79
2021/11/17 12:34:47;;;;;;;0.90;0.90;;;;;;;-145.69;100.00;72861.22;5096099;28;20273;-78
2021/11/17 12:37:20;;;;;;;1.17;1.00;;;;;;;-145.69;100.00;72847.28;5095985;28;20225;-78
2021/11/17 12:39:53;;;;;;;0.90;0.87;;;;;;;-145.69;100.00;72859.25;5095945;28;20210;-79
2021/11/17 12:42:27;;;;;;;2.30;0.80;;;;;;;-145.69;100.00;72859.25;5095686;28;20251;-79
2021/11/17 12:44:54;;;;;;;1.10;1.00;;;;;;;-145.69;100.00;72877.16;5095767;28;20660;-79
2021/11/17 12:47:25;;;;;;;1.03;0.93;;;;;;;-145.69;100.00;72873.19;5095553;28;20707;-78
2021/11/17 12:49:56;;;;;;;1.37;0.83;;;;;;;-145.69;100.00;72863.22;5095998;28;20210;-78
2021/11/17 12:52:27;;;;;;;1.30;0.90;;;;;;;-145.69;100.00;72871.19;5095847;28;20198;-79
2021/11/17 12:55:00;;;;;;;3.07;1.07;;;;;;;-145.69;100.00;72883.13;5095581;28;20691;-78
2021/11/17 12:57:31;;;;;;;2.17;1.00;;;;;;;-145.69;100.00;72889.09;5094971;28;20459;-79
2021/11/17 13:00:03;;;;;;;1.70;1.20;;;;;;;-145.69;100.00;72893.09;5095711;28;20204;-78
2021/11/17 13:02:37;;;;;;;3.07;1.47;;;;;;;-145.69;100.00;72914.97;5095476;28;20282;-78
2021/11/17 13:05:23;;;;;;;2.10;1.37;;;;;;;-145.69;100.00;72914.97;5095411;28;20602;-78
2021/11/17 13:07:54;;;;;;;1.53;1.43;;;;;;;-145.69;100.00;72907.00;5091929;28;20210;-78
2021/11/17 13:10:26;;;;;;;2.07;1.60;;;;;;;-145.69;100.00;72926.91;5095420;28;20198;-79
2021/11/17 13:13:02;;;;;;;2.60;1.57;;;;;;;-145.69;100.00;72928.91;5095484;28;20198;-79
2021/11/17 13:15:38;;;;;;;2.00;1.40;;;;;;;-145.69;100.00;72938.88;5095114;28;20206;-79
2021/11/17 13:18:07;;;;;;;1.57;1.40;;;;;;;-145.69;100.00;72934.88;5095261;28;20221;-81
2021/11/17 13:20:46;;;;;;;9.60;2.00;;;;;;;-145.69;100.00;72930.91;5095340;28;20210;-78
2021/11/17 13:23:36;;;;;;;2.57;1.43;;;;;;;-145.69;100.00;72928.91;5095017;28;20227;-79
2021/11/17 13:26:19;;;;;;;2.30;1.40;;;;;;;-145.69;100.00;72920.94;5094882;28;20286;-79
2021/11/17 13:28:47;;;;;;;2.07;1.47;;;;;;;-145.69;100.00;72924.94;5095114;28;20202;-79
2021/11/17 13:31:32;;;;;;;3.13;1.67;;;;;;;-145.69;100.00;72926.91;5094782;28;20194;-79
2021/11/17 13:34:04;;;;;;;2.20;1.50;;;;;;;-145.69;100.00;72938.88;5094862;28;20437;-78
2021/11/17 13:36:39;;;;;;;1.90;1.27;;;;;;;-145.69;100.00;72930.91;5094698;28;20202;-79
2021/11/17 13:39:05;;;;;;;2.53;1.43;;;;;;;-145.69;100.00;72918.97;5094924;28;20225;-79
2021/11/17 13:41:33;;;;;;;8.90;2.50;;;;;;;-145.69;100.00;72930.91;5094573;28;20202;-79
2021/11/17 13:44:02;;;;;;;3.20;2.27;;;;;;;-145.69;100.00;72932.91;5094231;28;20243;-79
2021/11/17 13:46:29;;;;;;;2.20;1.80;;;;;;;-145.69;100.00;72938.88;5094793;28;20198;-79
2021/11/17 13:48:56;;;;;;;2.10;1.40;;;;;;;-145.69;100.00;72948.81;5094304;28;20209;-79
2021/11/17 13:51:27;;;;;;;2.60;1.77;;;;;;;-145.69;100.00;72950.81;5094896;28;20194;-79
2021/11/17 13:53:54;;;;;;;2.00;1.47;;;;;;;-145.69;100.00;72934.88;5094619;28;20603;-79
2021/11/17 13:56:25;;;;;;;2.30;1.53;;;;;;;-145.69;100.00;72966.72;5094404;28;20213;-78
2021/11/17 13:58:52;;;;;;;1.73;1.60;;;;;;;-145.69;100.00;72958.78;5094539;28;20279;-79
2021/11/17 14:01:19;;;;;;;1.87;1.50;;;;;;;-145.69;100.00;72970.72;5105485;28;20201;-78
2021/11/17 14:03:45;;;;;;;2.27;1.53;;;;;;;-145.69;100.00;72980.66;5114056;28;20345;-79
2021/11/17 14:06:15;;;;;;;2.60;1.90;;;;;;;-145.69;100.00;72978.69;5113504;28;20193;-78
2021/11/17 14:08:44;;;;;;;2.60;1.90;;;;;;;-145.69;100.00;72968.72;5114136;28;20196;-79
2021/11/17 14:11:12;;;;;;;1.80;1.60;;;;;;;-145.69;100.00;72978.69;5113983;28;20194;-77